KHFD/HFD METAR and TAF weather

Enter ICAO airport designator
Station Type Date Time Source
KHFD METAR 2020/07/10 22:53 UTC NOAA

KHFD 102253Z 09007KT 10SM BKN023 BKN029 OVC034 26/22 A2983 RMK AO2 RAB32E49 SLP100 P0000 T02560222


Station Type Date Time Source
KHFD Decoded METAR 2020/07/10 22:53 UTC NOAA

HARTFORD-BRAINARD AIRPORT, CT, United States (KHFD) 41-44N 072-39W 4M
Jul 10, 2020 - 06:53 PM EDT / 2020.07.10 2253 UTC
Wind: from the E (090 degrees) at 8 MPH (7 KT):0
Visibility: 10 mile(s):0
Sky conditions: overcast
Precipitation last hour: A trace
Temperature: 78.1 F (25.6 C)
Dew Point: 72.0 F (22.2 C)
Relative Humidity: 81%
Pressure (altimeter): 29.83 in. Hg (1010 hPa)
ob: KHFD 102253Z 09007KT 10SM BKN023 BKN029 OVC034 26/22 A2983 RMK AO2 RAB32E49 SLP100 P0000 T02560222
cycle: 23

Station Type Date Time Source
KHFD TAF UTC NOAA

Error!

Example: see airport list